createdAt,value
2018-09-08T00:00:22.493Z,16.10
2018-09-08T00:02:49.995Z,16.00
2018-09-08T00:05:17.209Z,16.00
2018-09-08T00:07:44.401Z,16.00
2018-09-08T00:10:11.825Z,15.90
2018-09-08T00:12:39.041Z,15.80
2018-09-08T00:15:11.985Z,15.70
2018-09-08T00:17:44.857Z,15.60
2018-09-08T00:20:18.015Z,15.60
2018-09-08T00:22:50.946Z,15.60
2018-09-08T00:25:24.565Z,15.70
2018-09-08T00:27:58.450Z,15.70
2018-09-08T00:30:25.761Z,15.50
2018-09-08T00:32:52.975Z,15.60
2018-09-08T00:35:20.187Z,15.60
2018-09-08T00:37:47.398Z,15.50
2018-09-08T00:40:14.622Z,15.50
2018-09-08T00:42:42.687Z,15.40
2018-09-08T00:45:09.953Z,15.30
2018-09-08T00:47:37.161Z,15.20
2018-09-08T00:50:04.470Z,15.20
2018-09-08T00:52:31.673Z,15.10
2018-09-08T00:54:58.930Z,15.20
2018-09-08T00:57:26.201Z,15.10
2018-09-08T00:59:53.485Z,15.10
2018-09-08T01:02:20.752Z,15.00
2018-09-08T01:04:48.257Z,15.00
2018-09-08T01:07:21.346Z,15.00
2018-09-08T01:09:48.623Z,15.10
2018-09-08T01:12:15.881Z,15.10
2018-09-08T01:14:43.137Z,15.10
2018-09-08T01:17:10.461Z,15.10
2018-09-08T01:19:37.718Z,15.10
2018-09-08T01:22:05.082Z,14.90
2018-09-08T01:24:32.393Z,14.90
2018-09-08T01:26:59.684Z,14.90
2018-09-08T01:29:26.989Z,14.90
2018-09-08T01:31:54.313Z,14.90
2018-09-08T01:34:22.193Z,15.00
2018-09-08T01:36:49.489Z,15.00
2018-09-08T01:39:16.741Z,15.10
2018-09-08T01:41:44.043Z,15.20
2018-09-08T01:44:11.395Z,15.30
2018-09-08T01:46:38.678Z,15.40
2018-09-08T01:49:06.302Z,15.40
2018-09-08T01:51:33.594Z,15.40
2018-09-08T01:54:01.050Z,15.40
2018-09-08T01:56:28.300Z,15.40
2018-09-08T01:58:55.513Z,15.30
2018-09-08T02:01:22.737Z,15.30
2018-09-08T02:03:49.957Z,15.30
2018-09-08T02:06:17.238Z,15.30
2018-09-08T02:08:44.556Z,15.30
2018-09-08T02:11:11.769Z,15.30
2018-09-08T02:13:39.090Z,15.30
2018-09-08T02:16:06.367Z,15.30
2018-09-08T02:18:33.725Z,15.30
2018-09-08T02:21:01.090Z,15.40
2018-09-08T02:23:28.340Z,15.30
2018-09-08T02:25:55.603Z,15.30
2018-09-08T02:28:22.970Z,15.30
2018-09-08T02:30:50.181Z,15.30
2018-09-08T02:33:17.393Z,15.10
2018-09-08T02:35:44.765Z,14.90
2018-09-08T02:38:11.978Z,15.00
2018-09-08T02:40:39.190Z,15.00
2018-09-08T02:43:06.397Z,15.10
2018-09-08T02:45:33.717Z,15.10
2018-09-08T02:48:01.723Z,15.10
2018-09-08T02:50:30.498Z,15.10
2018-09-08T02:52:57.051Z,15.00
2018-09-08T02:55:23.463Z,15.00
2018-09-08T02:57:49.806Z,15.00
2018-09-08T03:00:16.132Z,15.00
2018-09-08T03:02:42.453Z,14.90
2018-09-08T03:05:08.797Z,14.90
2018-09-08T03:07:36.122Z,14.90
2018-09-08T03:10:02.421Z,14.90
2018-09-08T03:12:28.725Z,14.90
2018-09-08T03:14:55.025Z,15.00
2018-09-08T03:17:21.329Z,15.00
2018-09-08T03:19:47.610Z,15.00
2018-09-08T03:22:13.914Z,15.00
2018-09-08T03:24:40.293Z,15.10
2018-09-08T03:27:06.705Z,15.10
2018-09-08T03:29:33.063Z,15.10
2018-09-08T03:31:59.389Z,15.10
2018-09-08T03:34:25.716Z,15.10
2018-09-08T03:36:52.013Z,15.00
2018-09-08T03:39:18.314Z,15.00
2018-09-08T03:41:44.612Z,15.00
2018-09-08T03:44:10.913Z,14.90
2018-09-08T03:46:37.217Z,14.90
2018-09-08T03:49:03.547Z,14.80
2018-09-08T03:51:29.877Z,14.80
2018-09-08T03:53:56.173Z,14.70
2018-09-08T03:56:22.470Z,14.70
2018-09-08T03:58:48.775Z,14.60
2018-09-08T04:01:15.066Z,14.60
2018-09-08T04:03:42.309Z,14.50
2018-09-08T04:06:09.878Z,14.50
2018-09-08T04:08:37.106Z,14.40
2018-09-08T04:11:04.515Z,14.40
2018-09-08T04:13:31.751Z,14.40
2018-09-08T04:15:58.961Z,14.40
2018-09-08T04:18:26.197Z,14.40
2018-09-08T04:20:53.618Z,14.40
2018-09-08T04:23:20.862Z,14.40
2018-09-08T04:25:48.085Z,14.50
2018-09-08T04:28:16.672Z,14.40
2018-09-08T04:30:43.952Z,14.20
2018-09-08T04:33:11.158Z,14.40
2018-09-08T04:35:40.154Z,14.40
2018-09-08T04:38:07.395Z,14.40
2018-09-08T04:40:34.705Z,14.30
2018-09-08T04:43:01.946Z,14.30
2018-09-08T04:45:31.063Z,14.30
2018-09-08T04:47:58.312Z,14.30
2018-09-08T04:50:25.522Z,14.30
2018-09-08T04:52:52.737Z,14.40
2018-09-08T04:55:19.985Z,14.30
2018-09-08T04:57:47.536Z,14.30
2018-09-08T05:00:14.766Z,14.30
2018-09-08T05:02:41.978Z,14.40
2018-09-08T05:05:09.215Z,14.40
2018-09-08T05:07:36.541Z,14.40
2018-09-08T05:10:04.281Z,14.40
2018-09-08T05:12:31.511Z,14.40
2018-09-08T05:14:59.846Z,14.40
2018-09-08T05:17:27.091Z,14.30
2018-09-08T05:19:54.297Z,14.40
2018-09-08T05:22:21.545Z,14.40
2018-09-08T05:24:48.796Z,14.30
2018-09-08T05:27:15.994Z,14.30
2018-09-08T05:29:44.050Z,14.30
2018-09-08T05:32:11.246Z,14.30
2018-09-08T05:34:38.449Z,14.90
2018-09-08T05:37:05.669Z,14.30
2018-09-08T05:39:32.877Z,14.40
2018-09-08T05:42:00.099Z,14.30
2018-09-08T05:44:27.329Z,14.30
2018-09-08T05:46:54.579Z,14.30
2018-09-08T05:49:21.829Z,14.30
2018-09-08T05:51:49.041Z,14.40
2018-09-08T05:54:16.273Z,14.40
2018-09-08T05:56:43.485Z,14.40
2018-09-08T05:59:10.701Z,14.40
2018-09-08T06:01:37.914Z,14.40
2018-09-08T06:04:05.178Z,14.40
2018-09-08T06:06:32.406Z,14.60
2018-09-08T06:08:59.633Z,14.70
2018-09-08T06:11:26.837Z,14.70
2018-09-08T06:13:54.241Z,14.90
2018-09-08T06:16:21.463Z,14.90
2018-09-08T06:18:48.709Z,15.00
2018-09-08T06:21:15.925Z,15.00
2018-09-08T06:23:43.194Z,14.90
2018-09-08T06:26:10.397Z,15.00
2018-09-08T06:28:44.380Z,15.00
2018-09-08T06:31:11.556Z,15.00
2018-09-08T06:33:38.789Z,15.00
2018-09-08T06:36:06.715Z,15.10
2018-09-08T06:38:33.938Z,15.10
2018-09-08T06:41:01.175Z,15.10
2018-09-08T06:43:28.516Z,15.10
2018-09-08T06:45:55.730Z,15.10
2018-09-08T06:48:22.965Z,15.10
2018-09-08T06:50:50.184Z,15.10
2018-09-08T06:53:17.395Z,15.10
2018-09-08T06:55:44.637Z,15.10
2018-09-08T06:58:11.854Z,15.20
2018-09-08T07:00:39.141Z,15.20
2018-09-08T07:03:06.389Z,15.30
2018-09-08T07:05:33.590Z,15.30
2018-09-08T07:08:00.783Z,15.30
2018-09-08T07:10:28.018Z,15.30
2018-09-08T07:12:55.298Z,15.40
2018-09-08T07:15:22.506Z,15.40
2018-09-08T07:17:49.700Z,15.40
2018-09-08T07:20:16.905Z,15.50
2018-09-08T07:22:44.149Z,15.50
2018-09-08T07:25:11.395Z,15.50
2018-09-08T07:27:38.605Z,15.50
2018-09-08T07:30:06.063Z,15.60
2018-09-08T07:32:33.272Z,15.60
2018-09-08T07:35:00.725Z,15.70
2018-09-08T07:37:28.022Z,15.70
2018-09-08T07:39:55.162Z,15.70
2018-09-08T07:42:22.377Z,15.80
2018-09-08T07:44:49.770Z,15.80
2018-09-08T07:47:16.962Z,15.80
2018-09-08T07:49:44.209Z,15.90
2018-09-08T07:52:11.429Z,16.00
2018-09-08T07:54:38.626Z,16.20
2018-09-08T07:57:05.901Z,16.30
2018-09-08T07:59:33.167Z,16.30
2018-09-08T08:02:00.477Z,16.20
2018-09-08T08:04:27.729Z,16.30
2018-09-08T08:06:55.037Z,16.30
2018-09-08T08:09:22.292Z,16.30
2018-09-08T08:11:49.556Z,16.30
2018-09-08T08:14:16.818Z,16.40
2018-09-08T08:16:44.088Z,16.50
2018-09-08T08:19:11.400Z,16.50
2018-09-08T08:21:38.657Z,16.50
2018-09-08T08:24:06.038Z,16.50
2018-09-08T08:26:33.313Z,16.50
2018-09-08T08:29:00.589Z,16.50
2018-09-08T08:31:27.886Z,16.50
2018-09-08T08:33:55.193Z,16.50
2018-09-08T08:36:22.478Z,16.60
2018-09-08T08:38:49.742Z,16.50
2018-09-08T08:41:17.025Z,16.50
2018-09-08T08:43:44.362Z,16.50
2018-09-08T08:46:11.735Z,16.60
2018-09-08T08:48:39.009Z,16.70
2018-09-08T08:51:17.791Z,16.70
2018-09-08T08:53:56.458Z,16.70
2018-09-08T08:56:23.714Z,16.80
2018-09-08T08:58:50.932Z,16.90
2018-09-08T09:01:18.185Z,16.90
2018-09-08T09:03:45.585Z,16.90
2018-09-08T09:06:12.786Z,17.00
2018-09-08T09:08:40.487Z,16.90
2018-09-08T09:11:08.494Z,17.00
2018-09-08T09:13:35.901Z,17.00
2018-09-08T09:16:03.249Z,17.00
2018-09-08T09:18:42.292Z,17.10
2018-09-08T09:21:20.533Z,17.10
2018-09-08T09:25:03.559Z,17.10
2018-09-08T09:27:32.981Z,17.10
2018-09-08T09:30:00.448Z,17.20
2018-09-08T09:32:27.680Z,17.20
2018-09-08T09:34:54.895Z,17.20
2018-09-08T09:37:22.145Z,17.30
2018-09-08T09:39:50.026Z,17.30
2018-09-08T09:42:17.239Z,17.30
2018-09-08T09:44:44.449Z,17.30
2018-09-08T09:47:11.729Z,17.30
2018-09-08T09:49:38.953Z,17.40
2018-09-08T09:52:06.158Z,17.40
2018-09-08T09:54:33.385Z,17.40
2018-09-08T09:57:00.676Z,17.50
2018-09-08T09:59:28.022Z,17.50
2018-09-08T10:02:01.034Z,17.60
2018-09-08T10:04:28.338Z,17.70
2018-09-08T10:06:55.665Z,17.70
2018-09-08T10:09:22.994Z,17.70
2018-09-08T10:11:50.273Z,17.80
2018-09-08T10:14:18.278Z,17.70
2018-09-08T10:16:45.577Z,17.70
2018-09-08T10:19:12.905Z,17.60
2018-09-08T10:21:40.462Z,17.60
2018-09-08T10:24:07.786Z,17.70
2018-09-08T10:26:35.062Z,17.70
2018-09-08T10:29:02.382Z,17.80
2018-09-08T10:31:29.706Z,17.80
2018-09-08T10:33:56.998Z,17.80
2018-09-08T10:36:24.345Z,17.90
2018-09-08T10:38:51.609Z,18.00
2018-09-08T10:41:18.932Z,17.90
2018-09-08T10:43:46.313Z,18.00
2018-09-08T10:46:13.590Z,18.00
2018-09-08T10:48:40.857Z,18.10
2018-09-08T10:51:25.249Z,18.20
2018-09-08T10:53:52.516Z,18.20
2018-09-08T10:56:19.818Z,18.30
2018-09-08T10:58:47.038Z,18.30
2018-09-08T11:01:14.246Z,18.30
2018-09-08T11:03:41.455Z,18.40
2018-09-08T11:06:08.678Z,18.40
2018-09-08T11:08:35.875Z,18.30
2018-09-08T11:11:03.109Z,18.30
2018-09-08T11:13:30.317Z,18.40
2018-09-08T11:15:57.549Z,18.50
2018-09-08T11:18:24.766Z,18.60
2018-09-08T11:20:51.969Z,18.70
2018-09-08T11:23:19.351Z,18.70
2018-09-08T11:25:46.593Z,18.70
2018-09-08T11:28:13.814Z,18.70
2018-09-08T11:30:41.067Z,18.80
2018-09-08T11:33:08.234Z,18.70
2018-09-08T11:35:35.465Z,18.70
2018-09-08T11:38:02.732Z,18.80
2018-09-08T11:40:29.925Z,18.80
2018-09-08T11:42:57.134Z,18.90
2018-09-08T11:45:24.410Z,19.00
2018-09-08T11:47:51.614Z,19.00
2018-09-08T11:50:18.829Z,19.10
2018-09-08T11:52:46.027Z,19.20
2018-09-08T11:55:13.238Z,19.10
2018-09-08T11:57:40.449Z,19.20
2018-09-08T12:00:07.705Z,19.20
2018-09-08T12:02:34.949Z,19.10
2018-09-08T12:05:02.172Z,19.10
2018-09-08T12:07:29.407Z,19.20
2018-09-08T12:09:56.617Z,19.20
2018-09-08T12:12:23.829Z,19.30
2018-09-08T12:14:51.046Z,19.30
2018-09-08T12:17:18.261Z,19.30
2018-09-08T12:19:45.467Z,19.40
2018-09-08T12:22:12.705Z,19.40
2018-09-08T12:24:39.917Z,19.40
2018-09-08T12:27:07.455Z,19.50
2018-09-08T12:29:41.478Z,19.50
2018-09-08T12:32:08.781Z,19.60
2018-09-08T12:34:35.987Z,19.70
2018-09-08T12:37:03.716Z,19.70
2018-09-08T12:39:30.921Z,19.70
2018-09-08T12:41:58.277Z,19.80
2018-09-08T12:44:25.538Z,19.80
2018-09-08T12:46:52.755Z,19.90
2018-09-08T12:49:20.018Z,19.80
2018-09-08T12:51:47.281Z,19.90
2018-09-08T12:54:14.498Z,19.90
2018-09-08T12:56:41.721Z,20.00
2018-09-08T12:59:09.017Z,20.00
2018-09-08T13:01:36.184Z,20.00
2018-09-08T13:04:03.453Z,20.00
2018-09-08T13:06:30.657Z,20.00
2018-09-08T13:08:57.885Z,20.10
2018-09-08T13:11:25.088Z,20.20
2018-09-08T13:13:52.305Z,20.10
2018-09-08T13:16:19.557Z,20.10
2018-09-08T13:18:46.930Z,20.10
2018-09-08T13:21:14.118Z,20.10
2018-09-08T13:23:41.352Z,20.10
2018-09-08T13:26:08.547Z,20.10
2018-09-08T13:28:35.765Z,20.20
2018-09-08T13:31:03.038Z,20.10
2018-09-08T13:33:30.242Z,20.10
2018-09-08T13:35:57.549Z,20.20
2018-09-08T13:38:25.589Z,20.20
2018-09-08T13:40:52.854Z,20.20
2018-09-08T13:43:20.073Z,20.20
2018-09-08T13:45:47.361Z,20.30
2018-09-08T13:48:14.575Z,20.30
2018-09-08T13:50:41.772Z,20.20
2018-09-08T13:53:08.961Z,20.20
2018-09-08T13:55:36.165Z,20.30
2018-09-08T13:58:03.453Z,20.40
2018-09-08T14:00:30.735Z,20.50
2018-09-08T14:02:58.089Z,20.40
2018-09-08T14:05:25.345Z,20.50
2018-09-08T14:07:54.893Z,20.50
2018-09-08T14:10:22.246Z,20.60
2018-09-08T14:12:49.609Z,20.60
2018-09-08T14:15:16.865Z,20.60
2018-09-08T14:17:44.269Z,20.70
2018-09-08T14:20:11.524Z,20.60
2018-09-08T14:22:38.789Z,20.60
2018-09-08T14:25:06.109Z,20.60
2018-09-08T14:27:33.396Z,20.70
2018-09-08T14:30:00.900Z,20.90
2018-09-08T14:32:28.249Z,21.00
2018-09-08T14:34:55.502Z,21.10
2018-09-08T14:37:22.777Z,21.20
2018-09-08T14:39:50.059Z,21.40
2018-09-08T14:42:17.325Z,21.40
2018-09-08T14:44:44.586Z,21.40
2018-09-08T14:47:12.259Z,21.50
2018-09-08T14:49:39.546Z,21.50
2018-09-08T14:52:06.860Z,21.60
2018-09-08T14:54:34.141Z,21.50
2018-09-08T14:57:01.472Z,21.50
2018-09-08T14:59:28.782Z,21.50
2018-09-08T15:01:56.122Z,21.60
2018-09-08T15:04:23.508Z,21.60
2018-09-08T15:06:50.791Z,21.70
2018-09-08T15:09:18.074Z,21.60
2018-09-08T15:11:45.398Z,21.50
2018-09-08T15:14:12.685Z,21.50
2018-09-08T15:16:40.017Z,21.50
2018-09-08T15:19:07.303Z,21.50
2018-09-08T15:21:34.598Z,21.50
2018-09-08T15:24:01.893Z,21.50
2018-09-08T15:26:29.243Z,21.50
2018-09-08T15:28:56.496Z,21.50
2018-09-08T15:31:23.747Z,21.40
2018-09-08T15:33:51.072Z,21.30
2018-09-08T15:36:18.329Z,21.40
2018-09-08T15:38:45.689Z,21.40
2018-09-08T15:41:12.962Z,21.40
2018-09-08T15:43:40.270Z,21.40
2018-09-08T15:46:07.524Z,21.40
2018-09-08T15:48:34.754Z,21.40
2018-09-08T15:51:01.961Z,21.30
2018-09-08T15:53:29.403Z,21.30
2018-09-08T15:55:56.622Z,21.20
2018-09-08T15:58:23.979Z,21.20
2018-09-08T16:00:51.182Z,21.30
2018-09-08T16:03:18.453Z,21.20
2018-09-08T16:05:45.805Z,21.20
2018-09-08T16:08:13.057Z,21.20
2018-09-08T16:10:40.327Z,21.20
2018-09-08T16:13:08.030Z,21.10
2018-09-08T16:15:35.793Z,21.10
2018-09-08T16:18:03.089Z,21.10
2018-09-08T16:20:30.365Z,21.10
2018-09-08T16:22:57.732Z,21.10
2018-09-08T16:25:25.010Z,21.10
2018-09-08T16:27:52.277Z,21.10
2018-09-08T16:30:19.559Z,21.00
2018-09-08T16:32:46.890Z,21.00
2018-09-08T16:35:14.121Z,21.00
2018-09-08T16:37:41.373Z,21.00
2018-09-08T16:40:08.613Z,21.00
2018-09-08T16:42:35.866Z,21.10
2018-09-08T16:45:03.197Z,21.10
2018-09-08T16:47:30.449Z,21.10
2018-09-08T16:49:57.721Z,21.00
2018-09-08T16:52:25.151Z,21.00
2018-09-08T16:54:52.326Z,21.00
2018-09-08T16:57:19.521Z,20.90
2018-09-08T16:59:46.705Z,20.80
2018-09-08T17:02:13.901Z,20.70
2018-09-08T17:04:41.092Z,20.60
2018-09-08T17:07:08.307Z,20.60
2018-09-08T17:09:35.501Z,20.50
2018-09-08T17:12:02.809Z,20.40
2018-09-08T17:14:30.005Z,20.20
2018-09-08T17:16:57.209Z,20.20
2018-09-08T17:19:24.408Z,20.10
2018-09-08T17:21:51.646Z,20.00
2018-09-08T17:24:18.841Z,19.90
2018-09-08T17:26:46.033Z,19.70
2018-09-08T17:29:13.232Z,19.70
2018-09-08T17:31:40.413Z,19.60
2018-09-08T17:34:07.735Z,19.50
2018-09-08T17:36:34.877Z,19.50
2018-09-08T17:39:02.211Z,19.40
2018-09-08T17:41:29.394Z,19.30
2018-09-08T17:43:56.664Z,19.20
2018-09-08T17:46:24.449Z,19.10
2018-09-08T17:48:51.661Z,18.90
2018-09-08T17:51:18.874Z,18.70
2018-09-08T17:53:46.079Z,18.60
2018-09-08T17:56:13.285Z,18.60
2018-09-08T17:58:40.606Z,18.40
2018-09-08T18:01:07.849Z,18.40
2018-09-08T18:03:35.117Z,18.30
2018-09-08T18:06:02.441Z,18.20
2018-09-08T18:08:29.721Z,18.10
2018-09-08T18:10:57.017Z,18.10
2018-09-08T18:13:25.110Z,18.00
2018-09-08T18:15:52.601Z,17.90
2018-09-08T18:18:20.366Z,17.80
2018-09-08T18:20:47.773Z,17.80
2018-09-08T18:23:15.224Z,17.70
2018-09-08T18:25:42.968Z,17.50
2018-09-08T18:28:10.337Z,17.50
2018-09-08T18:30:37.594Z,17.50
2018-09-08T18:33:04.666Z,17.40
2018-09-08T18:35:31.940Z,17.40
2018-09-08T18:37:59.555Z,17.40
2018-09-08T18:40:26.806Z,17.30
2018-09-08T18:42:54.069Z,17.30
2018-09-08T18:45:21.397Z,17.30
2018-09-08T18:47:48.841Z,17.10
2018-09-08T18:50:16.277Z,17.00
2018-09-08T18:52:43.565Z,17.00
2018-09-08T18:55:10.837Z,16.90
2018-09-08T18:57:38.061Z,16.80
2018-09-08T19:00:05.316Z,16.70
2018-09-08T19:02:32.566Z,16.70
2018-09-08T19:04:59.765Z,16.60
2018-09-08T19:07:27.076Z,16.50
2018-09-08T19:10:00.095Z,16.40
2018-09-08T19:12:27.297Z,16.40
2018-09-08T19:15:00.334Z,16.40
2018-09-08T19:17:27.540Z,16.50
2018-09-08T19:20:00.723Z,16.30
2018-09-08T19:22:28.201Z,16.30
2018-09-08T19:24:55.407Z,16.20
2018-09-08T19:27:22.606Z,16.10
2018-09-08T19:29:49.854Z,16.10
2018-09-08T19:32:18.157Z,16.00
2018-09-08T19:34:50.001Z,16.00
2018-09-08T19:37:23.857Z,15.80
2018-09-08T19:39:51.130Z,15.90
2018-09-08T19:42:18.417Z,16.00
2018-09-08T19:44:45.662Z,16.00
2018-09-08T19:47:18.670Z,16.00
2018-09-08T19:49:45.881Z,16.10
2018-09-08T19:54:20.827Z,16.00
2018-09-08T19:56:53.636Z,15.80
2018-09-08T19:59:20.854Z,15.70
2018-09-08T20:01:48.085Z,15.70
2018-09-08T20:04:15.517Z,15.70
2018-09-08T20:06:42.729Z,15.90
2018-09-08T20:09:09.955Z,15.90
2018-09-08T20:11:37.169Z,16.00
2018-09-08T20:14:04.425Z,15.90
2018-09-08T20:16:31.707Z,15.90
2018-09-08T20:18:58.941Z,15.90
2018-09-08T20:21:26.201Z,15.80
2018-09-08T20:23:53.530Z,15.50
2018-09-08T20:26:20.766Z,15.30
2018-09-08T20:28:48.014Z,15.10
2018-09-08T20:31:15.245Z,15.10
2018-09-08T20:33:42.441Z,15.20
2018-09-08T20:36:09.657Z,15.20
2018-09-08T20:38:36.885Z,15.20
2018-09-08T20:41:04.161Z,15.30
2018-09-08T20:43:31.373Z,15.20
2018-09-08T20:45:58.570Z,15.20
2018-09-08T20:48:25.757Z,15.10
2018-09-08T20:50:52.965Z,15.10
2018-09-08T20:53:20.165Z,15.00
2018-09-08T20:55:47.377Z,14.90
2018-09-08T20:58:14.593Z,15.10
2018-09-08T21:00:41.834Z,15.20
2018-09-08T21:03:09.082Z,15.10
2018-09-08T21:05:36.285Z,15.20
2018-09-08T21:08:03.492Z,15.10
2018-09-08T21:10:30.701Z,15.10
2018-09-08T21:12:57.900Z,15.00
2018-09-08T21:15:25.109Z,15.00
2018-09-08T21:17:52.320Z,15.00
2018-09-08T21:20:19.554Z,15.00
2018-09-08T21:22:46.774Z,14.90
2018-09-08T21:25:14.001Z,14.80
2018-09-08T21:27:41.375Z,14.80
2018-09-08T21:30:08.537Z,14.90
2018-09-08T21:32:35.733Z,14.80
2018-09-08T21:35:02.961Z,14.80
2018-09-08T21:37:30.169Z,14.70
2018-09-08T21:39:57.392Z,14.70
2018-09-08T21:42:24.605Z,14.70
2018-09-08T21:44:51.801Z,14.80
2018-09-08T21:47:19.002Z,14.80
2018-09-08T21:49:46.194Z,14.70
2018-09-08T21:52:13.426Z,14.50
2018-09-08T21:54:40.613Z,14.40
2018-09-08T21:57:07.858Z,14.40
2018-09-08T21:59:35.061Z,14.30
2018-09-08T22:02:02.295Z,14.30
2018-09-08T22:04:29.529Z,14.30
2018-09-08T22:06:56.775Z,14.10
2018-09-08T22:09:24.106Z,14.10
2018-09-08T22:11:51.349Z,14.00
2018-09-08T22:14:18.594Z,14.00
2018-09-08T22:16:45.846Z,14.00
2018-09-08T22:19:13.061Z,13.90
2018-09-08T22:21:40.265Z,13.80
2018-09-08T22:24:07.534Z,13.80
2018-09-08T22:26:34.829Z,13.90
2018-09-08T22:29:02.031Z,13.80
2018-09-08T22:31:29.266Z,13.80
2018-09-08T22:33:56.492Z,13.80
2018-09-08T22:36:24.068Z,13.70
2018-09-08T22:38:51.278Z,13.70
2018-09-08T22:41:18.513Z,13.70
2018-09-08T22:43:45.801Z,13.70
2018-09-08T22:46:13.013Z,13.70
2018-09-08T22:48:40.281Z,13.60
2018-09-08T22:51:07.479Z,13.60
2018-09-08T22:53:34.698Z,13.70
2018-09-08T22:56:01.902Z,13.60
2018-09-08T22:58:29.165Z,13.50
2018-09-08T23:00:56.425Z,13.40
2018-09-08T23:03:23.690Z,13.40
2018-09-08T23:05:51.002Z,13.30
2018-09-08T23:08:18.281Z,13.40
2018-09-08T23:10:45.558Z,13.60
2018-09-08T23:13:12.831Z,13.60
2018-09-08T23:15:40.089Z,13.70
2018-09-08T23:18:07.341Z,13.60
2018-09-08T23:20:34.573Z,13.60
2018-09-08T23:23:01.869Z,13.60
2018-09-08T23:25:29.141Z,13.60
2018-09-08T23:27:56.402Z,13.70
2018-09-08T23:30:23.661Z,13.60
2018-09-08T23:32:50.929Z,13.60
2018-09-08T23:35:18.181Z,13.50
2018-09-08T23:37:45.433Z,13.50
2018-09-08T23:40:12.709Z,13.50
2018-09-08T23:42:40.002Z,13.60
2018-09-08T23:45:07.325Z,13.60
2018-09-08T23:47:34.601Z,13.60
2018-09-08T23:50:01.926Z,13.40
2018-09-08T23:52:29.218Z,13.40
2018-09-08T23:54:56.486Z,13.40
2018-09-08T23:57:23.741Z,13.40
2018-09-08T23:59:51.001Z,13.30
